Time;durP1;ratioP1;P1;durP2;ratioP2;P2;SDS_P1;SDS_P2;PMS_P1;PMS_P2;Temp;Humidity;BMP_temperature;BMP_pressure;BME280_temperature;BME280_humidity;BME280_pressure;Samples;Min_cycle;Max_cycle;Signal;HPM_P1;HPM_P2
2022/02/14 00:01:54;;;;;;;11.10;4.60;;;;;;;;;;5012322;28;20056;-69
2022/02/14 00:04:20;;;;;;;11.23;4.57;;;;;;;;;;5022608;28;20053;-69
2022/02/14 00:06:47;;;;;;;10.80;4.00;;;;;;;;;;5011160;28;20502;-69
2022/02/14 00:09:13;;;;;;;8.73;3.90;;;;;;;;;;5018611;28;20049;-68
2022/02/14 00:11:40;;;;;;;7.78;3.80;;;;;;;;;;5022761;28;20045;-71
2022/02/14 00:14:06;;;;;;;11.32;3.85;;;;;;;;;;4995956;28;20052;-71
2022/02/14 00:16:33;;;;;;;9.00;3.90;;;;;;;;;;5002345;28;20054;-69
2022/02/14 00:18:59;;;;;;;10.07;3.83;;;;;;;;;;5003089;28;20069;-68
2022/02/14 00:21:25;;;;;;;10.93;4.38;;;;;;;;;;5019081;28;20828;-69
2022/02/14 00:23:52;;;;;;;12.90;4.10;;;;;;;;;;5026284;28;20441;-69
2022/02/14 00:26:18;;;;;;;11.98;4.55;;;;;;;;;;5024099;28;20055;-69
2022/02/14 00:28:44;;;;;;;10.23;4.05;;;;;;;;;;5005102;28;20049;-69
2022/02/14 00:31:11;;;;;;;11.48;4.00;;;;;;;;;;4996401;28;20450;-69
2022/02/14 00:33:37;;;;;;;9.25;3.85;;;;;;;;;;5023470;28;20080;-69
2022/02/14 00:36:03;;;;;;;10.10;4.35;;;;;;;;;;5011177;28;20060;-71
2022/02/14 00:38:30;;;;;;;9.15;4.30;;;;;;;;;;5018232;28;20083;-68
2022/02/14 00:40:56;;;;;;;9.32;3.80;;;;;;;;;;5014437;28;20049;-66
2022/02/14 00:43:23;;;;;;;10.25;3.55;;;;;;;;;;5021458;28;20041;-67
2022/02/14 00:45:50;;;;;;;9.02;4.00;;;;;;;;;;5022319;28;20045;-67
2022/02/14 00:48:16;;;;;;;12.13;4.53;;;;;;;;;;5014049;28;20632;-67
2022/02/14 00:50:43;;;;;;;10.45;3.97;;;;;;;;;;5013703;28;20064;-67
2022/02/14 00:53:09;;;;;;;14.15;3.97;;;;;;;;;;5011853;28;20083;-69
2022/02/14 00:55:36;;;;;;;9.50;3.67;;;;;;;;;;5023316;28;20175;-69
2022/02/14 00:58:03;;;;;;;6.82;3.65;;;;;;;;;;4997835;28;20060;-69
2022/02/14 01:00:30;;;;;;;6.53;3.20;;;;;;;;;;5022523;28;20513;-69
2022/02/14 01:02:56;;;;;;;12.23;4.10;;;;;;;;;;5014712;28;20103;-68
2022/02/14 01:05:25;;;;;;;9.30;3.72;;;;;;;;;;5011563;28;20150;-69
2022/02/14 01:07:51;;;;;;;8.25;3.47;;;;;;;;;;5022194;28;20423;-69
2022/02/14 01:10:17;;;;;;;7.57;3.58;;;;;;;;;;5012515;28;20052;-69
2022/02/14 01:12:44;;;;;;;9.70;3.55;;;;;;;;;;5013436;28;20068;-69
2022/02/14 01:15:10;;;;;;;6.70;3.38;;;;;;;;;;5005266;28;20049;-69
2022/02/14 01:17:38;;;;;;;8.88;3.97;;;;;;;;;;5009172;28;20434;-72
2022/02/14 01:20:05;;;;;;;9.02;3.22;;;;;;;;;;5009042;28;20052;-69
2022/02/14 01:22:31;;;;;;;8.45;3.65;;;;;;;;;;5002901;28;20049;-69
2022/02/14 01:25:00;;;;;;;12.98;3.53;;;;;;;;;;5002669;28;20056;-69
2022/02/14 01:27:26;;;;;;;9.95;3.85;;;;;;;;;;5014707;28;20053;-69
2022/02/14 01:29:53;;;;;;;6.07;2.70;;;;;;;;;;5024539;28;20080;-69
2022/02/14 01:32:22;;;;;;;4.65;2.55;;;;;;;;;;5010747;28;20049;-69
2022/02/14 01:34:49;;;;;;;13.32;3.45;;;;;;;;;;5009864;28;20430;-69
2022/02/14 01:37:16;;;;;;;9.15;3.13;;;;;;;;;;5023258;28;20426;-71
2022/02/14 01:39:42;;;;;;;10.57;3.65;;;;;;;;;;5015023;28;20072;-68
2022/02/14 01:42:09;;;;;;;5.72;2.78;;;;;;;;;;5023948;28;20058;-73
2022/02/14 01:44:41;;;;;;;8.82;3.17;;;;;;;;;;5015569;28;20053;-69
2022/02/14 01:47:14;;;;;;;10.25;3.35;;;;;;;;;;5011133;28;20084;-69
2022/02/14 01:49:41;;;;;;;9.80;2.90;;;;;;;;;;5018505;28;20223;-69
2022/02/14 01:52:08;;;;;;;7.95;2.90;;;;;;;;;;5023018;28;20053;-68
2022/02/14 01:54:35;;;;;;;6.78;3.03;;;;;;;;;;5024196;28;20057;-69
2022/02/14 01:57:03;;;;;;;9.38;3.28;;;;;;;;;;5016208;28;20099;-69
2022/02/14 01:59:29;;;;;;;5.70;2.70;;;;;;;;;;5000617;28;20049;-68
2022/02/14 02:01:56;;;;;;;9.80;2.88;;;;;;;;;;5013634;28;20294;-69
2022/02/14 02:04:22;;;;;;;6.38;3.13;;;;;;;;;;5024308;28;20057;-69
2022/02/14 02:06:49;;;;;;;9.57;2.70;;;;;;;;;;5016682;28;20057;-69
2022/02/14 02:09:15;;;;;;;9.18;2.97;;;;;;;;;;5024608;28;20050;-69
2022/02/14 02:14:27;;;;;;;6.63;2.78;;;;;;;;;;5026563;28;20462;-69
2022/02/14 02:16:53;;;;;;;9.82;2.92;;;;;;;;;;5030633;28;20053;-69
2022/02/14 02:19:20;;;;;;;9.45;2.75;;;;;;;;;;5000296;28;20076;-70
2022/02/14 02:21:47;;;;;;;5.22;2.60;;;;;;;;;;5023477;28;20049;-69
2022/02/14 02:24:17;;;;;;;10.00;3.03;;;;;;;;;;5016360;28;20072;-69
2022/02/14 02:26:54;;;;;;;7.47;2.67;;;;;;;;;;5018397;28;20449;-69
2022/02/14 02:29:20;;;;;;;6.65;2.97;;;;;;;;;;5017445;28;20053;-69
2022/02/14 02:31:47;;;;;;;5.50;2.40;;;;;;;;;;5029078;28;20049;-69
2022/02/14 02:34:13;;;;;;;7.32;2.50;;;;;;;;;;5030569;28;20084;-69
2022/02/14 02:36:52;;;;;;;8.38;2.72;;;;;;;;;;5022101;28;20354;-68
2022/02/14 02:39:19;;;;;;;9.10;2.60;;;;;;;;;;5031060;28;20057;-69
2022/02/14 02:41:45;;;;;;;7.72;2.50;;;;;;;;;;5015191;28;20052;-71
2022/02/14 02:44:12;;;;;;;6.60;2.90;;;;;;;;;;5027238;28;20977;-69
2022/02/14 02:46:40;;;;;;;6.95;2.70;;;;;;;;;;5029821;28;20053;-69
2022/02/14 02:49:14;;;;;;;6.03;2.40;;;;;;;;;;5030589;28;20049;-69
2022/02/14 02:51:41;;;;;;;8.95;2.65;;;;;;;;;;5029616;28;20058;-69
2022/02/14 02:54:07;;;;;;;8.60;2.42;;;;;;;;;;5018758;28;20056;-71
2022/02/14 02:56:35;;;;;;;8.45;3.10;;;;;;;;;;5025376;28;20053;-69
2022/02/14 02:59:01;;;;;;;13.80;3.63;;;;;;;;;;5001788;28;20144;-69
2022/02/14 03:01:27;;;;;;;7.70;2.60;;;;;;;;;;5030293;28;20060;-69
2022/02/14 03:03:54;;;;;;;5.18;2.22;;;;;;;;;;5022814;28;20045;-69
2022/02/14 03:06:21;;;;;;;7.25;2.58;;;;;;;;;;5029161;28;20529;-69
2022/02/14 03:08:49;;;;;;;9.05;2.60;;;;;;;;;;5025203;28;20434;-69
2022/02/14 03:11:19;;;;;;;7.93;2.60;;;;;;;;;;5018913;28;20053;-69
2022/02/14 03:13:47;;;;;;;7.68;2.75;;;;;;;;;;5028709;28;20057;-68
2022/02/14 03:16:15;;;;;;;;;;;;;;;;;;5023604;28;20425;-68
2022/02/14 03:18:42;;;;;;;7.63;3.10;;;;;;;;;;5030206;28;19931;-68
2022/02/14 03:21:08;;;;;;;7.55;2.20;;;;;;;;;;5023157;28;20487;-69
2022/02/14 03:23:35;;;;;;;7.30;2.67;;;;;;;;;;5004622;28;20733;-69
2022/02/14 03:26:02;;;;;;;6.28;2.30;;;;;;;;;;5026152;28;20052;-69
2022/02/14 03:28:29;;;;;;;8.60;2.15;;;;;;;;;;5005496;28;20060;-68
2022/02/14 03:30:55;;;;;;;5.50;2.28;;;;;;;;;;5029715;28;20049;-69
2022/02/14 03:33:21;;;;;;;8.30;2.42;;;;;;;;;;5023045;28;20526;-69
2022/02/14 03:35:47;;;;;;;8.05;2.38;;;;;;;;;;5027457;28;20053;-68
2022/02/14 03:38:14;;;;;;;8.30;2.50;;;;;;;;;;4999045;28;20049;-69
2022/02/14 03:40:40;;;;;;;8.82;2.60;;;;;;;;;;5025046;28;20056;-68
2022/02/14 03:43:06;;;;;;;8.00;2.42;;;;;;;;;;5026391;28;20045;-68
2022/02/14 03:45:33;;;;;;;7.57;2.20;;;;;;;;;;5020313;28;20446;-71
2022/02/14 03:48:00;;;;;;;5.85;2.03;;;;;;;;;;5025856;28;20436;-68
2022/02/14 03:50:27;;;;;;;5.68;1.90;;;;;;;;;;5015265;28;20056;-70
2022/02/14 03:52:54;;;;;;;6.00;2.35;;;;;;;;;;5020948;28;20478;-68
2022/02/14 03:55:21;;;;;;;7.65;2.40;;;;;;;;;;5022738;28;20049;-68
2022/02/14 03:57:50;;;;;;;5.68;2.55;;;;;;;;;;5018435;28;20056;-68
2022/02/14 04:00:17;;;;;;;7.10;2.00;;;;;;;;;;5026153;28;20053;-68
2022/02/14 04:02:43;;;;;;;7.18;2.22;;;;;;;;;;5018829;28;20497;-69
2022/02/14 04:05:13;;;;;;;9.05;2.30;;;;;;;;;;5021134;28;20057;-68
2022/02/14 04:07:40;;;;;;;6.88;2.17;;;;;;;;;;5013726;28;20080;-68
2022/02/14 04:10:07;;;;;;;7.40;2.30;;;;;;;;;;5024536;28;20050;-70
2022/02/14 04:12:33;;;;;;;7.90;2.53;;;;;;;;;;5025399;28;20391;-68
2022/02/14 04:15:00;;;;;;;6.15;1.90;;;;;;;;;;5020581;28;20053;-68
2022/02/14 04:17:26;;;;;;;8.88;2.25;;;;;;;;;;5008237;28;20554;-68
2022/02/14 04:19:52;;;;;;;5.45;1.92;;;;;;;;;;5008186;28;20045;-68
2022/02/14 04:22:19;;;;;;;4.93;2.20;;;;;;;;;;5022650;28;20148;-68
2022/02/14 04:24:45;;;;;;;4.55;1.95;;;;;;;;;;5018692;28;20046;-68
2022/02/14 04:27:12;;;;;;;6.50;2.30;;;;;;;;;;5025270;28;20057;-68
2022/02/14 04:29:38;;;;;;;4.90;2.42;;;;;;;;;;5022669;28;20083;-68
2022/02/14 04:32:05;;;;;;;6.20;2.08;;;;;;;;;;5018929;28;20415;-68
2022/02/14 04:34:31;;;;;;;5.07;1.80;;;;;;;;;;5020013;28;20426;-69
2022/02/14 04:36:57;;;;;;;8.75;1.90;;;;;;;;;;5016725;28;20433;-70
2022/02/14 04:39:23;;;;;;;6.85;2.70;;;;;;;;;;5025987;28;20076;-70
2022/02/14 04:41:50;;;;;;;3.42;1.65;;;;;;;;;;5018396;28;20046;-69
2022/02/14 04:44:16;;;;;;;5.72;1.90;;;;;;;;;;5026140;28;20087;-70
2022/02/14 04:46:42;;;;;;;5.70;1.90;;;;;;;;;;5019290;28;20053;-70
2022/02/14 04:49:09;;;;;;;4.63;1.83;;;;;;;;;;5018177;28;20065;-68
2022/02/14 04:51:35;;;;;;;4.22;2.10;;;;;;;;;;5024520;28;20049;-68
2022/02/14 04:54:02;;;;;;;5.97;2.63;;;;;;;;;;5018721;28;20049;-70
2022/02/14 04:56:29;;;;;;;6.80;2.20;;;;;;;;;;5025437;28;20056;-68
2022/02/14 04:58:55;;;;;;;7.93;1.95;;;;;;;;;;5018597;28;20068;-70
2022/02/14 05:01:21;;;;;;;5.68;1.98;;;;;;;;;;5020593;28;20047;-69
2022/02/14 05:03:48;;;;;;;5.38;2.05;;;;;;;;;;5020211;28;20053;-68
2022/02/14 05:06:14;;;;;;;8.30;2.13;;;;;;;;;;5018338;28;20053;-70
2022/02/14 05:08:41;;;;;;;5.60;1.80;;;;;;;;;;5025317;28;20049;-70
2022/02/14 05:11:07;;;;;;;4.80;1.83;;;;;;;;;;5017961;28;20678;-70
2022/02/14 05:13:34;;;;;;;9.88;2.67;;;;;;;;;;5025903;28;20537;-70
2022/02/14 05:16:01;;;;;;;4.68;1.80;;;;;;;;;;5009084;28;20063;-70
2022/02/14 05:18:32;;;;;;;6.82;1.85;;;;;;;;;;5023704;28;20768;-70
2022/02/14 05:20:58;;;;;;;5.28;2.00;;;;;;;;;;5018960;28;20064;-70
2022/02/14 05:23:24;;;;;;;6.65;2.00;;;;;;;;;;5004714;28;20529;-70
2022/02/14 05:25:51;;;;;;;3.72;1.50;;;;;;;;;;5023476;28;20061;-71
2022/02/14 05:28:17;;;;;;;4.82;1.60;;;;;;;;;;5013785;28;20049;-70
2022/02/14 05:30:43;;;;;;;4.47;1.90;;;;;;;;;;5019160;28;20829;-70
2022/02/14 05:33:10;;;;;;;4.55;1.58;;;;;;;;;;5016490;28;20056;-71
2022/02/14 05:35:36;;;;;;;5.05;1.55;;;;;;;;;;5024691;28;20103;-68
2022/02/14 05:38:08;;;;;;;5.20;1.83;;;;;;;;;;5007500;28;20053;-68
2022/02/14 05:40:34;;;;;;;5.70;1.88;;;;;;;;;;5018260;28;20061;-70
2022/02/14 05:43:01;;;;;;;3.42;1.77;;;;;;;;;;5019113;28;20052;-68
2022/02/14 05:45:27;;;;;;;5.25;1.73;;;;;;;;;;5010656;28;20060;-70
2022/02/14 05:47:53;;;;;;;3.80;1.35;;;;;;;;;;5024221;28;20045;-70
2022/02/14 05:50:20;;;;;;;6.07;1.98;;;;;;;;;;5017608;28;20060;-70
2022/02/14 05:52:46;;;;;;;4.57;1.77;;;;;;;;;;5022549;28;20064;-70
2022/02/14 05:55:12;;;;;;;7.13;2.42;;;;;;;;;;5025299;28;20505;-71
2022/02/14 05:57:39;;;;;;;5.07;1.60;;;;;;;;;;5025628;28;20069;-70
2022/02/14 06:00:06;;;;;;;6.55;1.73;;;;;;;;;;5018698;28;20091;-70
2022/02/14 06:02:32;;;;;;;3.58;1.67;;;;;;;;;;5005677;28;20053;-70
2022/02/14 06:04:58;;;;;;;5.05;1.90;;;;;;;;;;5007356;28;20050;-70
2022/02/14 06:07:24;;;;;;;5.80;1.60;;;;;;;;;;5002915;28;20518;-71
2022/02/14 06:09:51;;;;;;;5.60;1.67;;;;;;;;;;5022406;28;20052;-70
2022/02/14 06:12:17;;;;;;;3.38;1.67;;;;;;;;;;5014447;28;20053;-70
2022/02/14 06:14:43;;;;;;;6.28;2.03;;;;;;;;;;5019868;28;20045;-70
2022/02/14 06:17:11;;;;;;;5.47;1.55;;;;;;;;;;5022789;28;20058;-70
2022/02/14 06:19:38;;;;;;;3.08;1.80;;;;;;;;;;5009082;28;20053;-70
2022/02/14 06:22:04;;;;;;;5.45;1.60;;;;;;;;;;5006791;28;20077;-70
2022/02/14 06:24:30;;;;;;;4.95;1.60;;;;;;;;;;4995671;28;20045;-70
2022/02/14 06:26:56;;;;;;;5.40;1.77;;;;;;;;;;4998989;28;20057;-70
2022/02/14 06:29:23;;;;;;;5.95;2.30;;;;;;;;;;5021016;28;20610;-70
2022/02/14 06:31:49;;;;;;;9.30;1.92;;;;;;;;;;5007377;28;20054;-70
2022/02/14 06:34:15;;;;;;;5.28;2.40;;;;;;;;;;5020560;28;20053;-70
2022/02/14 06:36:42;;;;;;;7.05;1.73;;;;;;;;;;5017007;28;20053;-70
2022/02/14 06:39:09;;;;;;;8.25;1.50;;;;;;;;;;5009869;28;20052;-68
2022/02/14 06:41:35;;;;;;;5.13;1.80;;;;;;;;;;5007269;28;20790;-70
2022/02/14 06:44:01;;;;;;;5.22;1.90;;;;;;;;;;5022669;28;20061;-68
2022/02/14 06:46:28;;;;;;;4.80;1.75;;;;;;;;;;5028333;28;20407;-68
2022/02/14 06:48:54;;;;;;;4.60;2.00;;;;;;;;;;5018653;28;20257;-69
2022/02/14 06:51:21;;;;;;;4.35;1.65;;;;;;;;;;5020241;28;20422;-68
2022/02/14 06:53:47;;;;;;;5.50;1.70;;;;;;;;;;5006199;28;20079;-71
2022/02/14 06:56:13;;;;;;;5.80;1.70;;;;;;;;;;5021666;28;20056;-69
2022/02/14 06:58:40;;;;;;;4.88;1.67;;;;;;;;;;5016811;28;20057;-69
2022/02/14 07:01:07;;;;;;;4.55;1.42;;;;;;;;;;5023313;28;20049;-69
2022/02/14 07:03:34;;;;;;;3.67;1.70;;;;;;;;;;5021787;28;20060;-69
2022/02/14 07:06:01;;;;;;;3.85;1.70;;;;;;;;;;5011997;28;20049;-69
2022/02/14 07:08:27;;;;;;;4.85;1.73;;;;;;;;;;5018713;28;20045;-69
2022/02/14 07:10:53;;;;;;;3.35;1.70;;;;;;;;;;5014407;28;20046;-70
2022/02/14 07:13:20;;;;;;;5.13;1.95;;;;;;;;;;5018713;28;20057;-68
2022/02/14 07:15:46;;;;;;;3.72;1.65;;;;;;;;;;5019108;28;20064;-69
2022/02/14 07:18:12;;;;;;;4.68;1.50;;;;;;;;;;5026152;28;20057;-69
2022/02/14 07:20:39;;;;;;;3.70;1.70;;;;;;;;;;5022458;28;20059;-69
2022/02/14 07:23:05;;;;;;;4.05;1.65;;;;;;;;;;5012864;28;20073;-68
2022/02/14 07:25:32;;;;;;;5.90;1.75;;;;;;;;;;5027278;28;20049;-68
2022/02/14 07:27:58;;;;;;;3.83;1.73;;;;;;;;;;5019431;28;20053;-69
2022/02/14 07:30:24;;;;;;;6.75;1.52;;;;;;;;;;5027639;28;20877;-69
2022/02/14 07:32:51;;;;;;;5.88;1.73;;;;;;;;;;5012448;28;20053;-68
2022/02/14 07:35:18;;;;;;;4.63;1.90;;;;;;;;;;5020087;28;20068;-68
2022/02/14 07:37:44;;;;;;;3.13;1.73;;;;;;;;;;5024371;28;20060;-68
2022/02/14 07:40:12;;;;;;;2.97;1.55;;;;;;;;;;5023149;28;20057;-68
2022/02/14 07:42:38;;;;;;;2.33;1.67;;;;;;;;;;5009565;28;20045;-69
2022/02/14 07:45:05;;;;;;;3.33;1.50;;;;;;;;;;5020865;28;20566;-69
2022/02/14 07:47:31;;;;;;;3.28;1.58;;;;;;;;;;5039183;28;20501;-69
2022/02/14 07:49:58;;;;;;;6.50;1.70;;;;;;;;;;5012395;28;20049;-69
2022/02/14 07:52:24;;;;;;;6.88;1.70;;;;;;;;;;5025741;28;20049;-69
2022/02/14 07:54:51;;;;;;;6.05;1.70;;;;;;;;;;5015064;28;20053;-69
2022/02/14 07:57:18;;;;;;;3.88;1.77;;;;;;;;;;5024662;28;20056;-69
2022/02/14 07:59:44;;;;;;;3.53;1.50;;;;;;;;;;5025731;28;20052;-68
2022/02/14 08:02:10;;;;;;;3.33;1.42;;;;;;;;;;5005254;28;20057;-69
2022/02/14 08:04:37;;;;;;;4.47;1.85;;;;;;;;;;5019997;28;20545;-69
2022/02/14 08:07:06;;;;;;;4.25;1.75;;;;;;;;;;4999307;28;20458;-69
2022/02/14 08:09:33;;;;;;;3.75;1.63;;;;;;;;;;5025958;28;20246;-69
2022/02/14 08:12:00;;;;;;;4.13;1.60;;;;;;;;;;5018927;28;20100;-69
2022/02/14 08:14:26;;;;;;;3.17;1.92;;;;;;;;;;5020631;28;20056;-69
2022/02/14 08:16:53;;;;;;;4.13;1.40;;;;;;;;;;5020690;28;20053;-69
2022/02/14 08:19:19;;;;;;;3.63;1.40;;;;;;;;;;5019020;28;20056;-70
2022/02/14 08:21:45;;;;;;;5.07;1.70;;;;;;;;;;5024244;28;20053;-70
2022/02/14 08:24:12;;;;;;;2.92;0.80;;;;;;;;;;5016522;28;20049;-70
2022/02/14 08:26:39;;;;;;;1.08;0.70;;;;;;;;;;5025833;28;20049;-69
2022/02/14 08:29:05;;;;;;;0.88;0.60;;;;;;;;;;5016683;28;20050;-69
2022/02/14 08:31:31;;;;;;;1.70;0.68;;;;;;;;;;5018124;28;20057;-70
2022/02/14 08:33:58;;;;;;;2.67;0.80;;;;;;;;;;5024700;28;20518;-69
2022/02/14 08:36:27;;;;;;;1.55;0.60;;;;;;;;;;5018119;28;20072;-69
2022/02/14 08:38:54;;;;;;;1.33;0.60;;;;;;;;;;5023908;28;20045;-69
2022/02/14 08:41:23;;;;;;;3.63;1.00;;;;;;;;;;5011486;28;20096;-70
2022/02/14 08:43:50;;;;;;;1.80;0.80;;;;;;;;;;5018971;28;20517;-69
2022/02/14 08:46:20;;;;;;;1.02;0.60;;;;;;;;;;5024731;28;20049;-70
2022/02/14 08:48:46;;;;;;;1.17;0.70;;;;;;;;;;5027657;28;20080;-69
2022/02/14 08:51:14;;;;;;;0.80;0.57;;;;;;;;;;5024163;28;20132;-69
2022/02/14 08:53:40;;;;;;;1.85;0.60;;;;;;;;;;5018285;28;20454;-69
2022/02/14 08:56:07;;;;;;;1.20;0.52;;;;;;;;;;5021428;28;20276;-69
2022/02/14 08:58:34;;;;;;;1.65;0.60;;;;;;;;;;5003085;28;20050;-69
2022/02/14 09:01:01;;;;;;;1.50;0.80;;;;;;;;;;5015626;28;20060;-70
2022/02/14 09:03:28;;;;;;;1.75;0.60;;;;;;;;;;4992549;28;20077;-69
2022/02/14 09:05:55;;;;;;;0.98;0.52;;;;;;;;;;5022187;28;20057;-70
2022/02/14 09:08:22;;;;;;;0.95;0.50;;;;;;;;;;5025147;28;20050;-70
2022/02/14 09:10:49;;;;;;;1.75;0.75;;;;;;;;;;5014309;28;20805;-69
2022/02/14 09:13:15;;;;;;;1.70;0.50;;;;;;;;;;5020306;28;20136;-70
2022/02/14 09:15:42;;;;;;;1.77;0.50;;;;;;;;;;5017696;28;20054;-69
2022/02/14 09:18:08;;;;;;;1.50;0.50;;;;;;;;;;5025338;28;20061;-70
2022/02/14 09:20:35;;;;;;;0.80;0.45;;;;;;;;;;5010642;28;20046;-69
2022/02/14 09:23:01;;;;;;;1.05;0.50;;;;;;;;;;5017331;28;20045;-69
2022/02/14 09:25:27;;;;;;;0.63;0.40;;;;;;;;;;5011153;28;20045;-69
2022/02/14 09:27:54;;;;;;;1.85;0.50;;;;;;;;;;5013670;28;20151;-69
2022/02/14 09:30:21;;;;;;;0.88;0.35;;;;;;;;;;5025400;28;20046;-69
2022/02/14 09:32:47;;;;;;;2.03;0.50;;;;;;;;;;5018196;28;20065;-69
2022/02/14 09:35:26;;;;;;;1.70;0.30;;;;;;;;;;5020095;28;20060;-69
2022/02/14 09:37:53;;;;;;;0.30;0.30;;;;;;;;;;5012745;28;20068;-69
2022/02/14 09:40:21;;;;;;;1.17;0.30;;;;;;;;;;5015891;28;20057;-67
2022/02/14 09:43:06;;;;;;;0.52;0.50;;;;;;;;;;5024729;28;20050;-67
2022/02/14 09:45:33;;;;;;;0.85;0.60;;;;;;;;;;5015904;28;20045;-71
2022/02/14 09:48:00;;;;;;;2.25;0.70;;;;;;;;;;5024161;28;20781;-71
2022/02/14 09:50:27;;;;;;;1.35;1.00;;;;;;;;;;5015744;28;20057;-71
2022/02/14 09:52:54;;;;;;;1.90;1.42;;;;;;;;;;5018760;28;20052;-71
2022/02/14 09:55:20;;;;;;;2.47;1.38;;;;;;;;;;5012467;28;20434;-71
2022/02/14 09:57:47;;;;;;;3.45;2.15;;;;;;;;;;5023998;28;20072;-71
2022/02/14 10:00:14;;;;;;;2.88;1.85;;;;;;;;;;5004808;28;20132;-70
2022/02/14 10:02:40;;;;;;;2.47;1.70;;;;;;;;;;5015778;28;20392;-70
2022/02/14 10:05:07;;;;;;;3.45;2.13;;;;;;;;;;5023751;28;20053;-70
2022/02/14 10:07:53;;;;;;;3.08;1.90;;;;;;;;;;5018260;28;20060;-70
2022/02/14 10:10:21;;;;;;;3.22;2.10;;;;;;;;;;5006338;28;20064;-71
2022/02/14 10:12:51;;;;;;;2.65;1.92;;;;;;;;;;5017183;28;20085;-69
2022/02/14 10:15:17;;;;;;;3.58;2.20;;;;;;;;;;5023749;28;20045;-69
2022/02/14 10:17:45;;;;;;;3.45;2.60;;;;;;;;;;5022742;28;20060;-70
2022/02/14 10:20:15;;;;;;;4.33;2.50;;;;;;;;;;5012701;28;20057;-70
2022/02/14 10:22:58;;;;;;;3.92;2.47;;;;;;;;;;5026776;28;20052;-70
2022/02/14 10:25:35;;;;;;;5.03;2.90;;;;;;;;;;5018152;28;20053;-70
2022/02/14 10:28:20;;;;;;;3.95;2.35;;;;;;;;;;5023525;28;20045;-70
2022/02/14 10:31:17;;;;;;;3.65;2.42;;;;;;;;;;5013121;28;20054;-70
2022/02/14 10:33:44;;;;;;;3.65;3.00;;;;;;;;;;5013150;28;20507;-69
2022/02/14 10:36:11;;;;;;;4.25;2.67;;;;;;;;;;5010230;28;20256;-69
2022/02/14 10:38:37;;;;;;;3.55;2.90;;;;;;;;;;5022247;28;20068;-69
2022/02/14 10:41:13;;;;;;;3.88;3.10;;;;;;;;;;5016766;28;20499;-70
2022/02/14 10:43:40;;;;;;;6.57;3.25;;;;;;;;;;5023299;28;20052;-69
2022/02/14 10:46:07;;;;;;;4.07;2.78;;;;;;;;;;5006705;28;20302;-70
2022/02/14 10:48:35;;;;;;;6.85;3.47;;;;;;;;;;5013253;28;20240;-69
2022/02/14 10:51:02;;;;;;;4.13;2.60;;;;;;;;;;5018070;28;20049;-69
2022/02/14 10:53:28;;;;;;;3.92;3.17;;;;;;;;;;5007868;28;20045;-69
2022/02/14 10:55:57;;;;;;;4.80;2.80;;;;;;;;;;5016246;28;20054;-69
2022/02/14 10:58:27;;;;;;;5.53;3.30;;;;;;;;;;5020447;28;20057;-69
2022/02/14 11:00:57;;;;;;;4.30;3.35;;;;;;;;;;5046273;28;20060;-69
2022/02/14 11:03:23;;;;;;;4.45;2.83;;;;;;;;;;5017294;28;20049;-69
2022/02/14 11:05:51;;;;;;;3.53;2.80;;;;;;;;;;5015444;28;20057;-69
2022/02/14 11:08:20;;;;;;;5.57;2.77;;;;;;;;;;5027097;28;20045;-69
2022/02/14 11:10:48;;;;;;;8.63;3.00;;;;;;;;;;5018936;28;20065;-69
2022/02/14 11:13:15;;;;;;;5.15;2.97;;;;;;;;;;5027324;28;20534;-69
2022/02/14 11:15:42;;;;;;;10.13;3.40;;;;;;;;;;5011694;28;20632;-69
2022/02/14 11:18:12;;;;;;;5.38;2.28;;;;;;;;;;5021929;28;20061;-69
2022/02/14 11:20:40;;;;;;;4.47;2.58;;;;;;;;;;5018409;28;20072;-69
2022/02/14 11:23:08;;;;;;;5.07;2.30;;;;;;;;;;5035813;28;20264;-70
2022/02/14 11:25:40;;;;;;;6.80;2.72;;;;;;;;;;5020843;28;20049;-69
2022/02/14 11:28:16;;;;;;;4.97;2.25;;;;;;;;;;5018834;28;20045;-70
2022/02/14 11:31:01;;;;;;;3.10;2.13;;;;;;;;;;5017289;28;20403;-69
2022/02/14 11:33:28;;;;;;;3.95;2.40;;;;;;;;;;4996796;28;20386;-69
2022/02/14 11:35:58;;;;;;;4.68;2.40;;;;;;;;;;5025010;28;20050;-69
2022/02/14 11:38:44;;;;;;;6.15;2.20;;;;;;;;;;5016834;28;20053;-70
2022/02/14 11:41:26;;;;;;;5.95;2.17;;;;;;;;;;5021000;28;20353;-69
2022/02/14 11:44:10;;;;;;;4.88;2.10;;;;;;;;;;5010529;28;20053;-70
2022/02/14 11:46:40;;;;;;;3.33;1.95;;;;;;;;;;5020395;28;20807;-70
2022/02/14 11:49:07;;;;;;;3.10;1.77;;;;;;;;;;5025381;28;20041;-69
2022/02/14 11:51:42;;;;;;;3.67;1.80;;;;;;;;;;5017745;28;20053;-69
2022/02/14 11:54:27;;;;;;;4.32;2.13;;;;;;;;;;5022872;28;20290;-70
2022/02/14 11:56:55;;;;;;;5.65;2.00;;;;;;;;;;5022130;28;20393;-69
2022/02/14 11:59:28;;;;;;;5.07;2.40;;;;;;;;;;5019152;28;20423;-69
2022/02/14 12:01:57;;;;;;;4.43;1.92;;;;;;;;;;5011910;28;20049;-69
2022/02/14 12:04:40;;;;;;;4.10;1.55;;;;;;;;;;5023903;28;20060;-68
2022/02/14 12:07:13;;;;;;;4.20;2.05;;;;;;;;;;5017161;28;20433;-68
2022/02/14 12:09:58;;;;;;;3.78;1.83;;;;;;;;;;5024536;28;20060;-69
2022/02/14 12:12:43;;;;;;;5.00;1.67;;;;;;;;;;5011256;28;20422;-68
2022/02/14 12:21:03;;;;;;;4.40;1.90;;;;;;;;;;5022730;28;20049;-68
2022/02/14 12:23:51;;;;;;;2.45;1.75;;;;;;;;;;5034947;28;20502;-68
2022/02/14 12:26:19;;;;;;;6.40;2.27;;;;;;;;;;5017495;28;20695;-68
2022/02/14 12:29:32;;;;;;;7.22;2.25;;;;;;;;;;5018353;28;20049;-68
2022/02/14 12:31:41;;;;;;;4.63;2.10;;;;;;;;;;5014493;28;20054;-68
2022/02/14 12:34:08;;;;;;;4.75;2.38;;;;;;;;;;5023426;28;20057;-68
2022/02/14 12:36:34;;;;;;;4.03;1.83;;;;;;;;;;5015613;28;20057;-69
2022/02/14 12:39:00;;;;;;;8.23;2.22;;;;;;;;;;5019773;28;20057;-67
2022/02/14 12:41:26;;;;;;;3.35;1.90;;;;;;;;;;5012762;28;20053;-68
2022/02/14 12:43:53;;;;;;;5.38;1.88;;;;;;;;;;5022732;28;20060;-68
2022/02/14 12:46:22;;;;;;;4.20;1.83;;;;;;;;;;5025722;28;20090;-67
2022/02/14 12:48:49;;;;;;;3.20;2.00;;;;;;;;;;5036632;28;20141;-67
2022/02/14 12:51:21;;;;;;;6.18;1.90;;;;;;;;;;5038524;28;20064;-68
2022/02/14 12:53:49;;;;;;;7.38;1.60;;;;;;;;;;5010128;28;20057;-68
2022/02/14 12:56:18;;;;;;;5.80;1.50;;;;;;;;;;5015688;28;20487;-69
2022/02/14 12:58:49;;;;;;;5.53;1.50;;;;;;;;;;5014174;28;20057;-69
2022/02/14 13:01:16;;;;;;;4.88;1.60;;;;;;;;;;5022871;28;20063;-69
2022/02/14 13:03:51;;;;;;;5.00;1.17;;;;;;;;;;5022265;28;20499;-69
2022/02/14 13:06:17;;;;;;;4.97;1.40;;;;;;;;;;5020720;28;20049;-69
2022/02/14 13:08:48;;;;;;;4.53;1.20;;;;;;;;;;5014834;28;20144;-69
2022/02/14 13:11:14;;;;;;;2.78;1.20;;;;;;;;;;4994020;28;20050;-69
2022/02/14 13:13:41;;;;;;;4.43;1.08;;;;;;;;;;5021647;28;20538;-69
2022/02/14 13:16:07;;;;;;;4.30;1.10;;;;;;;;;;5014719;28;20053;-69
2022/02/14 13:18:41;;;;;;;5.25;1.00;;;;;;;;;;5023194;28;20131;-69
2022/02/14 13:21:07;;;;;;;3.92;1.00;;;;;;;;;;5017855;28;20296;-70
2022/02/14 13:23:34;;;;;;;3.28;1.10;;;;;;;;;;5021598;28;20541;-69
2022/02/14 13:26:01;;;;;;;4.68;1.00;;;;;;;;;;5021711;28;20584;-69
2022/02/14 13:28:27;;;;;;;4.10;1.10;;;;;;;;;;5014073;28;20084;-69
2022/02/14 13:30:54;;;;;;;2.97;0.98;;;;;;;;;;5021125;28;20049;-69
2022/02/14 13:33:20;;;;;;;3.45;1.02;;;;;;;;;;5014714;28;20109;-70
2022/02/14 13:35:46;;;;;;;4.88;1.23;;;;;;;;;;5016943;28;20054;-69
2022/02/14 13:38:13;;;;;;;4.72;1.58;;;;;;;;;;5017095;28;20470;-69
2022/02/14 13:40:41;;;;;;;8.93;2.15;;;;;;;;;;5011544;28;20060;-69
2022/02/14 13:43:15;;;;;;;5.57;2.17;;;;;;;;;;5019339;28;20069;-69
2022/02/14 13:45:45;;;;;;;5.25;1.65;;;;;;;;;;5013303;28;20058;-69
2022/02/14 13:48:16;;;;;;;4.97;1.33;;;;;;;;;;5018475;28;20060;-69
2022/02/14 13:50:43;;;;;;;5.70;1.50;;;;;;;;;;5005249;28;20503;-69
2022/02/14 13:53:23;;;;;;;7.45;2.00;;;;;;;;;;5013007;28;20499;-70
2022/02/14 13:56:08;;;;;;;5.18;1.58;;;;;;;;;;4998176;28;20049;-69
2022/02/14 13:58:36;;;;;;;5.40;1.50;;;;;;;;;;5013436;28;20049;-69
2022/02/14 14:01:04;;;;;;;6.53;2.20;;;;;;;;;;5021205;28;20215;-68
2022/02/14 14:03:30;;;;;;;3.88;1.25;;;;;;;;;;4999439;28;20430;-69
2022/02/14 14:05:56;;;;;;;3.42;1.30;;;;;;;;;;5010972;28;20084;-68
2022/02/14 14:08:33;;;;;;;8.48;1.73;;;;;;;;;;5021256;28;20064;-69
2022/02/14 14:10:59;;;;;;;3.50;1.15;;;;;;;;;;5000224;28;20076;-68
2022/02/14 14:13:37;;;;;;;3.92;1.20;;;;;;;;;;5012942;28;20064;-69
2022/02/14 14:16:03;;;;;;;3.53;1.00;;;;;;;;;;5021022;28;20064;-69
2022/02/14 14:18:30;;;;;;;2.92;0.90;;;;;;;;;;5011561;28;20566;-68
2022/02/14 14:21:02;;;;;;;4.28;1.05;;;;;;;;;;5014389;28;20076;-68
2022/02/14 14:23:29;;;;;;;4.05;1.00;;;;;;;;;;5020493;28;20057;-69
2022/02/14 14:25:55;;;;;;;3.78;1.02;;;;;;;;;;5011304;28;20518;-69
2022/02/14 14:28:23;;;;;;;4.95;1.00;;;;;;;;;;5021458;28;20080;-68
2022/02/14 14:30:50;;;;;;;6.25;1.23;;;;;;;;;;5009775;28;20049;-69
2022/02/14 14:33:16;;;;;;;4.22;1.20;;;;;;;;;;5013906;28;20424;-69
2022/02/14 14:35:42;;;;;;;4.30;1.40;;;;;;;;;;5019857;28;20053;-68
2022/02/14 14:38:08;;;;;;;7.45;1.35;;;;;;;;;;5008027;28;20053;-67
2022/02/14 14:40:35;;;;;;;5.68;1.33;;;;;;;;;;5015851;28;20065;-70
2022/02/14 14:43:01;;;;;;;5.00;1.35;;;;;;;;;;5002437;28;20076;-68
2022/02/14 14:45:30;;;;;;;3.95;1.42;;;;;;;;;;5007937;28;20499;-68
2022/02/14 14:47:56;;;;;;;6.53;1.23;;;;;;;;;;5007632;28;20069;-68
2022/02/14 14:50:22;;;;;;;5.70;1.00;;;;;;;;;;5020604;28;20055;-67
2022/02/14 14:52:51;;;;;;;4.47;0.93;;;;;;;;;;5018617;28;20087;-68
2022/02/14 14:55:17;;;;;;;7.43;1.50;;;;;;;;;;5008876;28;20144;-68
2022/02/14 14:57:44;;;;;;;3.55;1.00;;;;;;;;;;5013935;28;20046;-70